Impacts TAF Board INFO
FOR SITUATIONAL AWARENESS. NOT TO BE USED FOR FLIGHT PLANNING PURPOSES.
IDs:

KBOS - Boston/Logan Intl, MA, US

Issued at 1131 UTC 22 Nov 2017
Updated at 1310 UTC 22 Nov 2017
Potential Impact None Slight Moderate High
Time1254Z 22/14Z 22/15Z 22/16Z 22/17Z 22/18Z 22/19Z 22/20Z 22/21Z 22/22Z 22/23Z 23/00Z 23/01Z 23/02Z>>
Type OBS PRVL PRVL PRVL PRVL PRVL PRVL PRVL PRVL PRVL PRVL PRVL PRVL PRVL
VIS 3 2 2 2 2 2 2 2 2 2 >6 >6 >6 >6
CIG 65 10 10 10 8 8 8 8 8 8 -- -- -- --
Cover OVC OVC OVC OVC OVC OVC OVC OVC OVC OVC SCT SCT SCT SCT
FltCat MVFR IFR IFR IFR IFR IFR IFR IFR IFR IFR VFR VFR VFR VFR
WX RA BR RA BR RA BR RA BR RA BR RA BR RA BR RA BR RA BR RA BR -- -- -- --
WDir VRB 140 140 140 100 100 100 100 100 100 320 320 320 320
WSpd 0 4 4 4 5 5 5 5 5 5 13 13 13 13
WGst -- -- -- -- -- -- -- -- -- -- 25 25 25 25

Raw TAF
KBOS 221131Z 2212/2318 18008KT P6SM -RA OVC050
  FM221400 14004KT 2SM RA BR OVC010
  FM221700 10005KT 2SM RA BR OVC008
  FM222300 32013G25KT P6SM SCT040
  FM230900 31010G20KT P6SM SKC
  FM231600 29010KT P6SM SKC


Raw METAR
KBOS 221254Z 00000KT 3SM RA BR OVC065 10/10 A2995 RMK AO2 SLP140 P0008 T01000100
KBOS 221154Z 18004KT 9SM -RA OVC065 09/09 A2995 RMK AO2 RAB14 SLP140 P0000 60000 T00940089 10100 20067 58021
KBOS 221054Z 17008KT 10SM OVC080 09/08 A2996 RMK AO2 SLP145 T00940083

METAR Board
Radar Display
Forecast Discussion

FOR SITUATIONAL AWARENESS. NOT TO BE USED FOR FLIGHT PLANNING PURPOSES.